Airports Germany Kassel-Calden Airport

Kassel-Calden Airport (EDVK / KSF)

Facts about Kassel-Calden Airport

Name Kassel-Calden Airport
City Kassel
Country Germany
ICAO code EDVK
IATA code KSF
Elevation 249.9360 meters (820 feet)

Weather

METAR

Metar data retrieved Saturday, 20 July 2024 at 00:55 UTC (3 minutes ago)

EDVK 200020Z AUTO 28002KT 9999 // NCD 16/15 Q1016

Live traffic

Navigraph Charts (account required)